createdAt,value
2023-03-05T00:00:36.154Z,6.83
2023-03-05T00:01:37.824Z,7.30
2023-03-05T00:02:39.481Z,6.78
2023-03-05T00:03:41.286Z,7.35
2023-03-05T00:04:42.923Z,6.75
2023-03-05T00:05:44.599Z,7.32
2023-03-05T00:06:46.242Z,7.32
2023-03-05T00:07:48.995Z,6.95
2023-03-05T00:08:51.884Z,7.47
2023-03-05T00:09:53.498Z,6.68
2023-03-05T00:10:58.537Z,7.00
2023-03-05T00:12:00.215Z,6.65
2023-03-05T00:13:01.812Z,6.82
2023-03-05T00:14:04.199Z,6.28
2023-03-05T00:15:06.463Z,6.85
2023-03-05T00:16:10.456Z,5.97
2023-03-05T00:17:12.131Z,6.47
2023-03-05T00:18:13.708Z,6.85
2023-03-05T00:19:15.355Z,6.85
2023-03-05T00:20:17.144Z,6.95
2023-03-05T00:21:25.902Z,6.77
2023-03-05T00:22:27.555Z,5.88
2023-03-05T00:23:29.208Z,7.28
2023-03-05T00:24:30.901Z,6.97
2023-03-05T00:25:34.764Z,6.82
2023-03-05T00:26:37.150Z,6.20
2023-03-05T00:27:38.809Z,7.03
2023-03-05T00:28:40.492Z,7.80
2023-03-05T00:29:42.560Z,7.63
2023-03-05T00:30:44.156Z,6.97
2023-03-05T00:31:45.824Z,7.00
2023-03-05T00:32:47.442Z,6.78
2023-03-05T00:33:55.738Z,6.35
2023-03-05T00:34:57.408Z,7.03
2023-03-05T00:36:01.778Z,6.70
2023-03-05T00:37:03.491Z,7.18
2023-03-05T00:38:05.140Z,6.40
2023-03-05T00:39:06.929Z,6.60
2023-03-05T00:40:09.811Z,6.72
2023-03-05T00:41:11.464Z,6.72
2023-03-05T00:42:13.059Z,6.93
2023-03-05T00:43:14.683Z,6.78
2023-03-05T00:44:16.404Z,6.63
2023-03-05T00:45:18.084Z,6.45
2023-03-05T00:46:19.841Z,6.78
2023-03-05T00:47:21.483Z,7.50
2023-03-05T00:48:23.112Z,6.72
2023-03-05T00:49:24.721Z,6.60
2023-03-05T00:50:26.457Z,6.82
2023-03-05T00:51:28.117Z,7.03
2023-03-05T00:52:29.734Z,7.03
2023-03-05T00:53:31.472Z,6.78
2023-03-05T00:54:33.087Z,6.72
2023-03-05T00:55:36.163Z,6.72
2023-03-05T00:56:37.901Z,6.50
2023-03-05T00:57:39.662Z,6.13
2023-03-05T00:58:41.462Z,6.30
2023-03-05T00:59:43.065Z,6.78
2023-03-05T01:00:44.726Z,7.47
2023-03-05T01:01:46.362Z,7.22
2023-03-05T01:02:48.069Z,7.07
2023-03-05T01:03:49.664Z,7.47
2023-03-05T01:04:51.346Z,6.32
2023-03-05T01:05:53.153Z,6.97
2023-03-05T01:06:54.856Z,6.90
2023-03-05T01:07:57.396Z,6.97
2023-03-05T01:08:59.657Z,6.63
2023-03-05T01:10:01.271Z,6.85
2023-03-05T01:11:03.586Z,7.20
2023-03-05T01:12:05.369Z,7.00
2023-03-05T01:13:06.976Z,7.07
2023-03-05T01:14:08.709Z,7.05
2023-03-05T01:15:10.351Z,7.45
2023-03-05T01:16:12.074Z,6.68
2023-03-05T01:17:13.664Z,6.45
2023-03-05T01:18:15.280Z,6.85
2023-03-05T01:19:17.037Z,6.40
2023-03-05T01:20:19.450Z,6.50
2023-03-05T01:21:22.092Z,5.97
2023-03-05T01:22:23.725Z,6.47
2023-03-05T01:23:25.331Z,6.68
2023-03-05T01:24:27.078Z,6.18
2023-03-05T01:25:28.723Z,7.20
2023-03-05T01:26:30.390Z,7.10
2023-03-05T01:27:32.120Z,6.38
2023-03-05T01:28:33.771Z,7.20
2023-03-05T01:29:36.554Z,6.35
2023-03-05T01:30:38.406Z,6.50
2023-03-05T01:31:40.111Z,6.63
2023-03-05T01:32:42.011Z,6.32
2023-03-05T01:33:43.714Z,6.03
2023-03-05T01:34:45.311Z,5.90
2023-03-05T01:35:50.098Z,6.22
2023-03-05T01:36:51.856Z,6.50
2023-03-05T01:37:53.704Z,6.25
2023-03-05T01:38:55.328Z,6.85
2023-03-05T01:39:56.935Z,6.70
2023-03-05T01:40:58.527Z,5.90
2023-03-05T01:42:00.169Z,6.35
2023-03-05T01:43:24.240Z,6.30
2023-03-05T01:44:28.082Z,6.45
2023-03-05T01:45:31.866Z,6.22
2023-03-05T01:46:38.315Z,6.15
2023-03-05T01:47:39.990Z,6.20
2023-03-05T01:48:41.710Z,6.13
2023-03-05T01:49:43.384Z,6.93
2023-03-05T01:50:44.977Z,6.68
2023-03-05T01:52:00.704Z,6.17
2023-03-05T01:53:03.844Z,5.90
2023-03-05T01:54:06.056Z,6.70
2023-03-05T01:55:13.958Z,5.85
2023-03-05T01:56:15.821Z,6.85
2023-03-05T01:57:24.047Z,5.82
2023-03-05T01:58:25.816Z,6.28
2023-03-05T01:59:27.433Z,5.88
2023-03-05T02:00:34.477Z,6.13
2023-03-05T02:01:41.234Z,5.25
2023-03-05T02:02:43.706Z,5.57
2023-03-05T02:03:45.585Z,6.15
2023-03-05T02:05:07.883Z,6.05
2023-03-05T02:06:09.897Z,6.07
2023-03-05T02:07:11.604Z,6.60
2023-03-05T02:08:15.277Z,6.07
2023-03-05T02:09:16.928Z,6.70
2023-03-05T02:10:24.679Z,6.38
2023-03-05T02:11:27.442Z,6.60
2023-03-05T02:12:29.053Z,6.18
2023-03-05T02:13:32.726Z,5.70
2023-03-05T02:14:34.337Z,6.63
2023-03-05T02:15:35.949Z,6.40
2023-03-05T02:16:38.363Z,6.55
2023-03-05T02:17:40.093Z,6.32
2023-03-05T02:18:41.690Z,6.10
2023-03-05T02:20:04.814Z,5.95
2023-03-05T02:21:07.549Z,5.95
2023-03-05T02:22:14.966Z,5.82
2023-03-05T02:23:17.089Z,6.18
2023-03-05T02:24:33.543Z,5.67
2023-03-05T02:25:35.131Z,6.55
2023-03-05T02:26:36.724Z,6.15
2023-03-05T02:27:38.328Z,6.28
2023-03-05T02:28:42.710Z,5.40
2023-03-05T02:29:46.011Z,5.72
2023-03-05T02:30:47.761Z,6.50
2023-03-05T02:31:49.401Z,6.72
2023-03-05T02:32:51.048Z,5.93
2023-03-05T02:33:53.988Z,6.13
2023-03-05T02:34:55.667Z,6.37
2023-03-05T02:35:57.344Z,6.13
2023-03-05T02:36:59.032Z,6.20
2023-03-05T02:38:00.641Z,6.18
2023-03-05T02:39:02.358Z,6.10
2023-03-05T02:40:04.247Z,5.68
2023-03-05T02:41:05.937Z,5.97
2023-03-05T02:42:07.749Z,5.35
2023-03-05T02:43:09.664Z,6.50
2023-03-05T02:44:11.310Z,6.40
2023-03-05T02:45:13.485Z,5.25
2023-03-05T02:46:15.226Z,5.30
2023-03-05T02:47:16.884Z,6.15
2023-03-05T02:48:18.486Z,4.85
2023-03-05T02:49:20.109Z,4.90
2023-03-05T02:50:21.766Z,5.80
2023-03-05T02:51:23.408Z,6.05
2023-03-05T02:52:25.591Z,5.53
2023-03-05T02:53:27.230Z,5.18
2023-03-05T02:54:28.895Z,5.97
2023-03-05T02:55:30.549Z,5.25
2023-03-05T02:56:32.217Z,5.38
2023-03-05T02:57:34.096Z,5.07
2023-03-05T02:58:35.747Z,5.22
2023-03-05T02:59:37.376Z,5.65
2023-03-05T03:00:38.979Z,5.70
2023-03-05T03:01:40.705Z,5.55
2023-03-05T03:02:42.334Z,5.05
2023-03-05T03:03:43.940Z,5.78
2023-03-05T03:04:45.590Z,5.90
2023-03-05T03:05:47.233Z,5.50
2023-03-05T03:06:48.834Z,5.25
2023-03-05T03:07:50.442Z,5.82
2023-03-05T03:08:52.095Z,6.20
2023-03-05T03:09:53.689Z,5.40
2023-03-05T03:10:56.567Z,6.10
2023-03-05T03:11:58.188Z,5.78
2023-03-05T03:12:59.869Z,5.25
2023-03-05T03:14:01.481Z,5.45
2023-03-05T03:15:03.153Z,5.43
2023-03-05T03:16:06.812Z,5.70
2023-03-05T03:17:09.651Z,5.25
2023-03-05T03:18:11.362Z,5.63
2023-03-05T03:19:13.004Z,6.18
2023-03-05T03:20:16.627Z,7.00
2023-03-05T03:21:20.605Z,5.32
2023-03-05T03:22:22.259Z,5.57
2023-03-05T03:23:24.028Z,5.15
2023-03-05T03:24:25.654Z,5.70
2023-03-05T03:25:27.370Z,5.40
2023-03-05T03:26:29.010Z,5.20
2023-03-05T03:27:30.609Z,5.50
2023-03-05T03:28:32.292Z,5.35
2023-03-05T03:29:33.871Z,6.07
2023-03-05T03:30:35.548Z,5.93
2023-03-05T03:31:40.139Z,5.40
2023-03-05T03:32:41.766Z,5.32
2023-03-05T03:33:43.528Z,5.82
2023-03-05T03:34:45.191Z,6.17
2023-03-05T03:35:46.816Z,5.95
2023-03-05T03:36:48.975Z,6.57
2023-03-05T03:37:50.562Z,5.45
2023-03-05T03:38:52.192Z,5.80
2023-03-05T03:39:53.866Z,6.60
2023-03-05T03:40:55.480Z,5.88
2023-03-05T03:41:57.214Z,6.30
2023-03-05T03:42:58.822Z,6.10
2023-03-05T03:44:01.017Z,5.95
2023-03-05T03:45:02.766Z,5.87
2023-03-05T03:46:07.529Z,6.57
2023-03-05T03:47:09.169Z,6.03
2023-03-05T03:48:11.036Z,6.00
2023-03-05T03:49:20.556Z,5.88
2023-03-05T03:50:25.063Z,6.13
2023-03-05T03:51:26.699Z,5.57
2023-03-05T03:52:28.370Z,5.70
2023-03-05T03:53:30.081Z,6.10
2023-03-05T03:54:31.701Z,5.50
2023-03-05T03:55:33.758Z,6.10
2023-03-05T03:56:35.358Z,5.95
2023-03-05T03:57:37.203Z,5.97
2023-03-05T03:58:38.833Z,5.78
2023-03-05T03:59:40.469Z,6.40
2023-03-05T04:00:42.177Z,6.15
2023-03-05T04:01:43.848Z,5.68
2023-03-05T04:02:45.486Z,5.90
2023-03-05T04:03:47.125Z,6.03
2023-03-05T04:04:48.877Z,6.75
2023-03-05T04:05:50.532Z,5.43
2023-03-05T04:06:52.191Z,6.00
2023-03-05T04:07:53.835Z,5.90
2023-03-05T04:08:55.542Z,6.13
2023-03-05T04:09:57.133Z,6.00
2023-03-05T04:11:00.975Z,5.28
2023-03-05T04:12:02.582Z,6.18
2023-03-05T04:13:04.188Z,6.15
2023-03-05T04:14:05.796Z,6.82
2023-03-05T04:15:08.064Z,6.40
2023-03-05T04:16:09.794Z,5.97
2023-03-05T04:17:11.779Z,5.93
2023-03-05T04:18:13.382Z,6.32
2023-03-05T04:19:15.040Z,6.28
2023-03-05T04:20:16.932Z,6.72
2023-03-05T04:21:18.599Z,6.53
2023-03-05T04:22:20.220Z,6.65
2023-03-05T04:23:21.842Z,5.63
2023-03-05T04:24:23.430Z,6.82
2023-03-05T04:25:25.097Z,6.10
2023-03-05T04:26:26.808Z,6.45
2023-03-05T04:27:28.402Z,6.05
2023-03-05T04:28:30.142Z,5.78
2023-03-05T04:29:31.971Z,6.13
2023-03-05T04:30:33.617Z,6.65
2023-03-05T04:31:35.213Z,6.10
2023-03-05T04:32:36.916Z,6.13
2023-03-05T04:33:38.592Z,6.65
2023-03-05T04:34:40.343Z,5.85
2023-03-05T04:35:42.054Z,5.73
2023-03-05T04:36:43.736Z,6.05
2023-03-05T04:37:45.339Z,6.07
2023-03-05T04:38:46.966Z,5.50
2023-03-05T04:39:48.548Z,5.30
2023-03-05T04:40:50.146Z,5.78
2023-03-05T04:41:51.734Z,5.57
2023-03-05T04:42:53.338Z,6.53
2023-03-05T04:43:55.035Z,6.35
2023-03-05T04:44:56.707Z,5.55
2023-03-05T04:45:58.398Z,5.57
2023-03-05T04:47:00.155Z,6.50
2023-03-05T04:48:01.783Z,6.05
2023-03-05T04:49:03.480Z,6.18
2023-03-05T04:50:05.617Z,6.43
2023-03-05T04:51:07.368Z,5.60
2023-03-05T04:52:10.136Z,7.13
2023-03-05T04:53:11.742Z,6.13
2023-03-05T04:54:13.424Z,6.40
2023-03-05T04:55:15.401Z,6.20
2023-03-05T04:56:17.096Z,6.40
2023-03-05T04:57:18.940Z,6.00
2023-03-05T04:58:20.561Z,5.75
2023-03-05T04:59:22.161Z,6.22
2023-03-05T05:00:23.962Z,6.25
2023-03-05T05:01:25.871Z,5.93
2023-03-05T05:02:27.631Z,6.15
2023-03-05T05:03:29.499Z,6.25
2023-03-05T05:04:31.904Z,7.00
2023-03-05T05:05:33.596Z,6.20
2023-03-05T05:06:35.369Z,5.85
2023-03-05T05:07:36.963Z,5.43
2023-03-05T05:08:38.563Z,6.20
2023-03-05T05:09:41.573Z,5.85
2023-03-05T05:10:43.202Z,6.22
2023-03-05T05:11:44.869Z,6.10
2023-03-05T05:12:46.499Z,6.05
2023-03-05T05:13:48.113Z,5.57
2023-03-05T05:14:49.722Z,6.15
2023-03-05T05:15:51.380Z,5.63
2023-03-05T05:16:53.046Z,5.65
2023-03-05T05:17:54.676Z,5.65
2023-03-05T05:18:56.324Z,6.22
2023-03-05T05:19:58.089Z,5.97
2023-03-05T05:20:59.693Z,5.80
2023-03-05T05:22:01.496Z,6.05
2023-03-05T05:23:03.092Z,6.00
2023-03-05T05:24:05.099Z,6.40
2023-03-05T05:25:06.911Z,5.55
2023-03-05T05:26:08.733Z,5.83
2023-03-05T05:27:10.375Z,6.63
2023-03-05T05:28:12.246Z,5.68
2023-03-05T05:29:13.895Z,6.50
2023-03-05T05:30:15.796Z,6.53
2023-03-05T05:31:17.564Z,6.53
2023-03-05T05:32:22.818Z,7.22
2023-03-05T05:33:24.670Z,6.40
2023-03-05T05:34:26.407Z,6.30
2023-03-05T05:35:28.060Z,6.50
2023-03-05T05:36:29.767Z,5.67
2023-03-05T05:37:31.514Z,6.13
2023-03-05T05:38:33.361Z,6.55
2023-03-05T05:39:35.545Z,6.60
2023-03-05T05:40:37.136Z,6.28
2023-03-05T05:41:38.777Z,6.20
2023-03-05T05:42:40.446Z,6.30
2023-03-05T05:43:42.048Z,6.00
2023-03-05T05:44:43.808Z,5.68
2023-03-05T05:45:45.626Z,6.45
2023-03-05T05:46:47.402Z,6.70
2023-03-05T05:47:49.142Z,7.13
2023-03-05T05:48:50.857Z,7.13
2023-03-05T05:49:52.471Z,7.05
2023-03-05T05:50:54.135Z,7.40
2023-03-05T05:51:55.732Z,7.32
2023-03-05T05:52:57.318Z,6.88
2023-03-05T05:53:58.963Z,7.15
2023-03-05T05:55:01.174Z,6.03
2023-03-05T05:56:05.207Z,7.43
2023-03-05T05:57:07.203Z,6.73
2023-03-05T05:58:08.815Z,6.93
2023-03-05T05:59:10.587Z,7.20
2023-03-05T06:00:13.071Z,6.47
2023-03-05T06:01:26.467Z,6.90
2023-03-05T06:02:28.163Z,7.13
2023-03-05T06:03:29.881Z,6.55
2023-03-05T06:04:31.906Z,6.90
2023-03-05T06:05:34.330Z,6.70
2023-03-05T06:06:35.987Z,7.07
2023-03-05T06:07:37.742Z,6.60
2023-03-05T06:08:39.660Z,7.20
2023-03-05T06:09:41.334Z,6.60
2023-03-05T06:10:42.912Z,6.80
2023-03-05T06:11:44.499Z,6.43
2023-03-05T06:12:46.131Z,9.25
2023-03-05T06:13:48.228Z,9.82
2023-03-05T06:14:50.691Z,21.90
2023-03-05T06:15:57.472Z,10.55
2023-03-05T06:16:59.083Z,27.30
2023-03-05T06:18:00.779Z,36.97
2023-03-05T06:19:04.638Z,29.88
2023-03-05T06:20:07.034Z,12.43
2023-03-05T06:21:12.082Z,9.23
2023-03-05T06:22:13.700Z,10.80
2023-03-05T06:23:15.359Z,8.95
2023-03-05T06:24:19.280Z,14.73
2023-03-05T06:25:20.901Z,19.25
2023-03-05T06:26:22.939Z,11.35
2023-03-05T06:27:24.554Z,13.80
2023-03-05T06:28:26.382Z,14.47
2023-03-05T06:29:27.956Z,13.63
2023-03-05T06:30:29.622Z,15.18
2023-03-05T06:31:31.320Z,14.90
2023-03-05T06:32:33.042Z,13.32
2023-03-05T06:33:34.969Z,18.23
2023-03-05T06:34:36.626Z,21.65
2023-03-05T06:35:40.120Z,19.48
2023-03-05T06:36:43.648Z,10.50
2023-03-05T06:37:45.301Z,9.30
2023-03-05T06:38:48.449Z,7.97
2023-03-05T06:39:50.583Z,7.90
2023-03-05T06:40:52.206Z,7.57
2023-03-05T06:41:53.811Z,8.45
2023-03-05T06:42:55.478Z,8.38
2023-03-05T06:43:57.411Z,9.07
2023-03-05T06:44:59.087Z,8.60
2023-03-05T06:46:04.948Z,11.48
2023-03-05T06:47:07.711Z,8.00
2023-03-05T06:48:09.335Z,8.95
2023-03-05T06:49:11.776Z,7.47
2023-03-05T06:50:13.515Z,8.80
2023-03-05T06:51:23.156Z,7.35
2023-03-05T06:52:24.754Z,7.85
2023-03-05T06:53:26.452Z,8.90
2023-03-05T06:54:28.136Z,7.82
2023-03-05T06:55:29.906Z,7.57
2023-03-05T06:56:31.772Z,7.32
2023-03-05T06:57:33.618Z,7.10
2023-03-05T06:58:35.271Z,7.57
2023-03-05T06:59:37.103Z,7.57
2023-03-05T07:00:38.728Z,7.55
2023-03-05T07:01:40.414Z,7.57
2023-03-05T07:02:42.186Z,7.63
2023-03-05T07:03:43.987Z,6.78
2023-03-05T07:04:46.002Z,7.38
2023-03-05T07:05:47.684Z,8.45
2023-03-05T07:06:49.347Z,7.70
2023-03-05T07:07:50.942Z,7.47
2023-03-05T07:08:54.995Z,7.47
2023-03-05T07:09:56.597Z,8.33
2023-03-05T07:10:58.431Z,8.43
2023-03-05T07:12:00.034Z,9.93
2023-03-05T07:13:01.650Z,9.73
2023-03-05T07:14:03.446Z,8.57
2023-03-05T07:15:05.534Z,9.13
2023-03-05T07:16:08.299Z,8.48
2023-03-05T07:17:09.945Z,8.35
2023-03-05T07:18:11.549Z,9.07
2023-03-05T07:19:13.200Z,10.05
2023-03-05T07:20:14.858Z,8.13
2023-03-05T07:21:18.844Z,9.00
2023-03-05T07:22:20.439Z,9.23
2023-03-05T07:23:22.029Z,7.72
2023-03-05T07:24:29.019Z,8.77
2023-03-05T07:25:30.622Z,7.95
2023-03-05T07:26:33.618Z,8.85
2023-03-05T07:27:36.841Z,8.90
2023-03-05T07:28:38.435Z,14.05
2023-03-05T07:29:40.079Z,9.20
2023-03-05T07:30:41.834Z,9.30
2023-03-05T07:31:43.541Z,8.93
2023-03-05T07:32:45.158Z,8.75
2023-03-05T07:33:47.607Z,8.48
2023-03-05T07:34:49.295Z,9.32
2023-03-05T07:35:50.955Z,9.60
2023-03-05T07:36:52.748Z,10.43
2023-03-05T07:37:55.892Z,10.52
2023-03-05T07:38:57.592Z,9.05
2023-03-05T07:39:59.215Z,9.77
2023-03-05T07:41:08.099Z,9.20
2023-03-05T07:42:09.717Z,8.23
2023-03-05T07:43:11.384Z,9.13
2023-03-05T07:44:13.086Z,8.63
2023-03-05T07:45:14.684Z,8.18
2023-03-05T07:46:17.408Z,10.63
2023-03-05T07:47:19.163Z,10.18
2023-03-05T07:48:21.079Z,11.68
2023-03-05T07:49:23.837Z,8.93
2023-03-05T07:50:25.436Z,9.32
2023-03-05T07:51:27.328Z,8.80
2023-03-05T07:52:28.943Z,7.80
2023-03-05T07:53:30.585Z,8.98
2023-03-05T07:54:32.180Z,8.95
2023-03-05T07:55:33.768Z,9.38
2023-03-05T07:56:35.770Z,9.45
2023-03-05T07:57:39.097Z,9.68
2023-03-05T07:58:40.757Z,8.80
2023-03-05T07:59:43.296Z,9.32
2023-03-05T08:00:44.906Z,10.85
2023-03-05T08:01:46.601Z,9.10
2023-03-05T08:02:48.382Z,8.15
2023-03-05T08:03:50.159Z,9.07
2023-03-05T08:04:51.779Z,8.70
2023-03-05T08:05:53.406Z,8.60
2023-03-05T08:06:55.082Z,8.73
2023-03-05T08:07:56.670Z,8.48
2023-03-05T08:08:58.424Z,8.95
2023-03-05T08:10:00.044Z,8.30
2023-03-05T08:11:09.190Z,8.50
2023-03-05T08:12:10.850Z,9.27
2023-03-05T08:13:12.475Z,7.57
2023-03-05T08:14:14.082Z,7.60
2023-03-05T08:15:15.917Z,9.10
2023-03-05T08:16:19.441Z,9.02
2023-03-05T08:17:21.161Z,8.60
2023-03-05T08:18:22.750Z,9.23
2023-03-05T08:19:24.330Z,9.63
2023-03-05T08:20:26.063Z,9.50
2023-03-05T08:21:33.864Z,9.40
2023-03-05T08:22:35.582Z,9.47
2023-03-05T08:23:37.223Z,9.20
2023-03-05T08:24:38.908Z,12.13
2023-03-05T08:25:40.541Z,14.57
2023-03-05T08:26:42.392Z,12.98
2023-03-05T08:27:45.590Z,12.02
2023-03-05T08:28:47.395Z,11.95
2023-03-05T08:29:49.001Z,11.70
2023-03-05T08:30:50.762Z,10.07
2023-03-05T08:31:53.740Z,10.15
2023-03-05T08:32:55.487Z,10.80
2023-03-05T08:33:57.985Z,10.23
2023-03-05T08:34:59.643Z,8.88
2023-03-05T08:36:01.251Z,9.85
2023-03-05T08:37:02.860Z,9.65
2023-03-05T08:38:05.022Z,10.50
2023-03-05T08:39:10.082Z,9.77
2023-03-05T08:40:12.233Z,10.60
2023-03-05T08:41:14.135Z,9.82
2023-03-05T08:42:15.789Z,10.80
2023-03-05T08:43:17.729Z,9.80
2023-03-05T08:44:19.410Z,11.63
2023-03-05T08:45:21.019Z,11.52
2023-03-05T08:46:22.677Z,10.50
2023-03-05T08:47:26.639Z,8.93
2023-03-05T08:48:28.393Z,9.25
2023-03-05T08:49:30.090Z,11.00
2023-03-05T08:50:31.699Z,11.73
2023-03-05T08:51:33.854Z,10.05
2023-03-05T08:52:35.474Z,9.43
2023-03-05T08:53:37.096Z,10.17
2023-03-05T08:54:38.900Z,10.68
2023-03-05T08:55:41.396Z,10.80
2023-03-05T08:56:44.294Z,8.77
2023-03-05T08:57:46.043Z,9.10
2023-03-05T08:58:48.395Z,8.93
2023-03-05T08:59:51.685Z,11.07
2023-03-05T09:00:53.961Z,8.43
2023-03-05T09:01:55.631Z,8.50
2023-03-05T09:02:57.351Z,11.77
2023-03-05T09:03:59.500Z,11.00
2023-03-05T09:05:01.149Z,8.70
2023-03-05T09:06:03.996Z,9.60
2023-03-05T09:07:05.796Z,8.65
2023-03-05T09:08:07.447Z,9.32
2023-03-05T09:09:09.587Z,9.55
2023-03-05T09:10:13.722Z,10.18
2023-03-05T09:11:15.510Z,8.93
2023-03-05T09:12:17.112Z,9.93
2023-03-05T09:13:18.714Z,9.90
2023-03-05T09:14:20.986Z,12.00
2023-03-05T09:15:22.671Z,12.27
2023-03-05T09:16:24.368Z,12.65
2023-03-05T09:17:26.024Z,10.95
2023-03-05T09:18:28.883Z,8.00
2023-03-05T09:19:30.523Z,9.60
2023-03-05T09:20:33.384Z,9.85
2023-03-05T09:21:34.962Z,13.40
2023-03-05T09:22:36.581Z,7.40
2023-03-05T09:23:38.287Z,8.57
2023-03-05T09:24:40.014Z,11.23
2023-03-05T09:25:41.755Z,11.73
2023-03-05T09:26:44.293Z,11.52
2023-03-05T09:27:46.052Z,11.70
2023-03-05T09:28:47.946Z,7.78
2023-03-05T09:29:49.933Z,9.90
2023-03-05T09:30:51.621Z,9.20
2023-03-05T09:31:53.430Z,9.18
2023-03-05T09:32:55.041Z,8.15
2023-03-05T09:33:56.627Z,8.70
2023-03-05T09:34:58.420Z,8.60
2023-03-05T09:36:00.783Z,8.70
2023-03-05T09:37:03.249Z,8.65
2023-03-05T09:38:04.905Z,9.43
2023-03-05T09:39:07.100Z,8.70
2023-03-05T09:40:13.996Z,8.50
2023-03-05T09:41:53.094Z,8.52
2023-03-05T09:42:59.848Z,8.27
2023-03-05T09:44:04.331Z,8.02
2023-03-05T09:45:29.857Z,9.18
2023-03-05T09:46:33.270Z,8.63
2023-03-05T09:48:20.805Z,8.00
2023-03-05T09:49:46.935Z,7.15
2023-03-05T09:51:00.233Z,7.78
2023-03-05T09:52:11.384Z,8.85
2023-03-05T09:53:18.162Z,8.23
2023-03-05T09:54:21.874Z,8.13
2023-03-05T09:55:34.625Z,7.85
2023-03-05T09:56:37.943Z,7.93
2023-03-05T09:57:42.978Z,8.18
2023-03-05T09:58:56.217Z,7.13
2023-03-05T09:59:59.679Z,9.32
2023-03-05T10:01:16.022Z,8.65
2023-03-05T10:02:26.746Z,8.48
2023-03-05T10:03:30.217Z,7.43
2023-03-05T10:04:38.867Z,7.70
2023-03-05T10:05:52.190Z,7.72
2023-03-05T10:06:53.810Z,7.28
2023-03-05T10:08:01.418Z,8.40
2023-03-05T10:09:23.706Z,7.57
2023-03-05T10:10:42.386Z,7.47
2023-03-05T10:11:49.822Z,7.38
2023-03-05T10:12:52.789Z,7.57
2023-03-05T10:13:54.597Z,6.93
2023-03-05T10:14:57.214Z,7.85
2023-03-05T10:16:01.617Z,7.30
2023-03-05T10:17:23.360Z,7.82
2023-03-05T10:18:51.306Z,7.30
2023-03-05T10:19:58.890Z,7.78
2023-03-05T10:21:09.586Z,6.88
2023-03-05T10:22:39.551Z,7.03
2023-03-05T10:23:48.545Z,7.10
2023-03-05T10:25:18.693Z,6.82
2023-03-05T10:26:47.035Z,6.68
2023-03-05T10:27:57.106Z,6.38
2023-03-05T10:29:27.905Z,7.20
2023-03-05T10:30:41.585Z,6.25
2023-03-05T10:31:43.437Z,7.15
2023-03-05T10:33:27.033Z,6.80
2023-03-05T10:34:56.860Z,4.93
2023-03-05T10:36:17.077Z,5.57
2023-03-05T10:37:52.882Z,5.75
2023-03-05T10:39:16.264Z,5.72
2023-03-05T10:40:38.363Z,6.72
2023-03-05T10:42:02.800Z,5.93
2023-03-05T10:43:30.318Z,6.55
2023-03-05T10:44:58.992Z,5.80
2023-03-05T10:46:00.639Z,6.45
2023-03-05T10:47:02.462Z,5.22
2023-03-05T10:48:41.150Z,6.00
2023-03-05T10:49:51.479Z,5.27
2023-03-05T10:51:00.827Z,5.45
2023-03-05T10:52:18.172Z,8.95
2023-03-05T10:53:35.098Z,5.50
2023-03-05T10:54:39.930Z,6.90
2023-03-05T10:55:42.152Z,5.70
2023-03-05T10:56:43.899Z,5.88
2023-03-05T10:57:45.766Z,5.43
2023-03-05T10:58:47.765Z,6.20
2023-03-05T10:59:54.911Z,6.20
2023-03-05T11:01:12.537Z,6.77
2023-03-05T11:02:14.359Z,6.53
2023-03-05T11:03:16.128Z,5.22
2023-03-05T11:04:28.661Z,5.90
2023-03-05T11:05:40.631Z,7.18
2023-03-05T11:06:45.775Z,7.30
2023-03-05T11:07:48.823Z,5.43
2023-03-05T11:08:50.838Z,5.88
2023-03-05T11:10:04.568Z,6.65
2023-03-05T11:11:17.799Z,6.18
2023-03-05T11:12:20.517Z,5.73
2023-03-05T11:13:26.677Z,6.05
2023-03-05T11:14:33.887Z,7.13
2023-03-05T11:15:35.680Z,5.85
2023-03-05T11:16:47.662Z,5.60
2023-03-05T11:18:08.507Z,6.82
2023-03-05T11:19:19.215Z,7.28
2023-03-05T11:20:27.179Z,6.05
2023-03-05T11:21:29.863Z,5.28
2023-03-05T11:22:36.259Z,5.80
2023-03-05T11:23:38.133Z,6.60
2023-03-05T11:24:41.468Z,6.00
2023-03-05T11:26:01.319Z,6.43
2023-03-05T11:27:03.967Z,5.50
2023-03-05T11:28:06.180Z,7.25
2023-03-05T11:29:23.874Z,5.85
2023-03-05T11:30:25.738Z,4.60
2023-03-05T11:31:32.654Z,4.72
2023-03-05T11:32:34.451Z,4.95
2023-03-05T11:33:36.777Z,5.60
2023-03-05T11:34:39.220Z,6.00
2023-03-05T11:35:43.117Z,9.80
2023-03-05T11:37:06.412Z,8.77
2023-03-05T11:38:17.458Z,7.88
2023-03-05T11:39:21.044Z,7.43
2023-03-05T11:40:23.122Z,5.25
2023-03-05T11:41:52.255Z,8.52
2023-03-05T11:42:59.234Z,9.27
2023-03-05T11:44:03.893Z,4.60
2023-03-05T11:45:06.781Z,4.68
2023-03-05T11:46:09.593Z,5.30
2023-03-05T11:47:25.397Z,5.25
2023-03-05T11:48:38.577Z,4.75
2023-03-05T11:49:44.077Z,4.75
2023-03-05T11:50:47.332Z,5.63
2023-03-05T11:52:11.108Z,4.75
2023-03-05T11:53:24.522Z,4.80
2023-03-05T11:54:33.945Z,8.95
2023-03-05T11:55:51.212Z,7.05
2023-03-05T11:56:53.357Z,6.88
2023-03-05T11:58:01.712Z,5.40
2023-03-05T11:59:07.285Z,10.80
2023-03-05T12:00:13.175Z,5.47
2023-03-05T12:01:25.810Z,5.00
2023-03-05T12:02:27.925Z,4.32
2023-03-05T12:03:32.598Z,6.72
2023-03-05T12:04:34.371Z,4.63
2023-03-05T12:05:37.380Z,4.50
2023-03-05T12:06:49.803Z,4.97
2023-03-05T12:07:53.619Z,4.38
2023-03-05T12:08:57.673Z,5.60
2023-03-05T12:10:01.195Z,3.72
2023-03-05T12:11:07.472Z,4.07
2023-03-05T12:12:20.837Z,4.53
2023-03-05T12:13:24.587Z,4.43
2023-03-05T12:14:31.774Z,4.32
2023-03-05T12:15:47.788Z,4.10
2023-03-05T12:16:56.135Z,4.40
2023-03-05T12:18:12.778Z,4.22
2023-03-05T12:19:28.958Z,4.15
2023-03-05T12:20:43.409Z,4.57
2023-03-05T12:21:45.711Z,4.90
2023-03-05T12:22:49.247Z,5.15
2023-03-05T12:23:53.441Z,5.25
2023-03-05T12:24:55.320Z,4.22
2023-03-05T12:25:59.423Z,4.60
2023-03-05T12:27:04.546Z,5.28
2023-03-05T12:28:06.405Z,4.90
2023-03-05T12:29:31.185Z,5.35
2023-03-05T12:30:35.742Z,4.82
2023-03-05T12:31:39.362Z,4.33
2023-03-05T12:32:45.162Z,5.20
2023-03-05T12:33:46.925Z,4.63
2023-03-05T12:34:58.826Z,4.20
2023-03-05T12:36:19.402Z,4.80
2023-03-05T12:37:21.091Z,4.30
2023-03-05T12:38:32.494Z,4.47
2023-03-05T12:39:40.517Z,4.90
2023-03-05T12:40:42.997Z,4.60
2023-03-05T12:41:44.909Z,4.72
2023-03-05T12:43:00.216Z,4.40
2023-03-05T12:44:09.139Z,5.18
2023-03-05T12:45:16.369Z,5.00
2023-03-05T12:46:26.373Z,5.40
2023-03-05T12:47:28.334Z,4.93
2023-03-05T12:48:30.471Z,5.30
2023-03-05T12:49:39.826Z,5.10
2023-03-05T12:50:43.725Z,5.75
2023-03-05T12:51:47.411Z,5.18
2023-03-05T12:52:50.748Z,4.78
2023-03-05T12:53:52.800Z,5.60
2023-03-05T12:55:15.434Z,6.97
2023-03-05T12:56:20.283Z,5.50
2023-03-05T12:57:23.972Z,5.90
2023-03-05T12:58:39.942Z,5.50
2023-03-05T12:59:45.074Z,5.93
2023-03-05T13:00:51.006Z,6.97
2023-03-05T13:01:56.721Z,5.38
2023-03-05T13:02:59.651Z,5.45
2023-03-05T13:04:11.253Z,6.20
2023-03-05T13:05:33.741Z,5.83
2023-03-05T13:06:35.940Z,6.28
2023-03-05T13:07:38.074Z,8.80
2023-03-05T13:08:40.435Z,8.77
2023-03-05T13:09:42.993Z,6.50
2023-03-05T13:10:57.320Z,6.22
2023-03-05T13:12:00.945Z,6.65
2023-03-05T13:13:05.512Z,11.25
2023-03-05T13:14:30.928Z,13.93
2023-03-05T13:15:33.283Z,8.30
2023-03-05T13:16:39.516Z,7.80
2023-03-05T13:17:44.945Z,8.18
2023-03-05T13:18:50.500Z,7.30
2023-03-05T13:19:53.162Z,8.70
2023-03-05T13:21:18.845Z,5.55
2023-03-05T13:22:21.889Z,6.03
2023-03-05T13:23:27.846Z,5.70
2023-03-05T13:24:30.329Z,6.38
2023-03-05T13:25:32.153Z,5.32
2023-03-05T13:26:39.073Z,7.75
2023-03-05T13:27:41.803Z,7.07
2023-03-05T13:28:45.654Z,8.50
2023-03-05T13:29:53.043Z,9.02
2023-03-05T13:31:03.052Z,6.15
2023-03-05T13:32:23.285Z,4.78
2023-03-05T13:33:36.944Z,4.00
2023-03-05T13:34:47.081Z,4.28
2023-03-05T13:35:51.899Z,4.38
2023-03-05T13:37:15.115Z,3.83
2023-03-05T13:38:37.710Z,5.35
2023-03-05T13:39:51.341Z,4.77
2023-03-05T13:41:26.513Z,4.57
2023-03-05T13:42:34.945Z,4.53
2023-03-05T13:43:51.900Z,3.55
2023-03-05T13:44:55.523Z,3.92
2023-03-05T13:45:59.115Z,4.07
2023-03-05T13:47:20.005Z,4.43
2023-03-05T13:48:22.179Z,3.95
2023-03-05T13:49:29.901Z,4.30
2023-03-05T13:50:34.477Z,4.22
2023-03-05T13:51:44.282Z,4.77
2023-03-05T13:52:46.763Z,4.05
2023-03-05T13:53:49.625Z,4.43
2023-03-05T13:54:52.027Z,4.10
2023-03-05T13:55:58.737Z,4.35
2023-03-05T13:57:04.926Z,3.88
2023-03-05T13:58:07.127Z,3.42
2023-03-05T13:59:20.620Z,4.47
2023-03-05T14:00:40.805Z,3.95
2023-03-05T14:01:44.404Z,4.57
2023-03-05T14:02:46.668Z,4.07
2023-03-05T14:03:52.597Z,3.85
2023-03-05T14:04:54.947Z,4.45
2023-03-05T14:05:57.087Z,4.18
2023-03-05T14:07:02.229Z,3.95
2023-03-05T14:08:04.153Z,4.38
2023-03-05T14:09:30.712Z,4.30
2023-03-05T14:10:37.666Z,4.32
2023-03-05T14:11:39.691Z,3.90
2023-03-05T14:12:44.092Z,3.92
2023-03-05T14:13:47.343Z,3.70
2023-03-05T14:14:49.978Z,4.30
2023-03-05T14:16:11.688Z,4.80
2023-03-05T14:17:35.916Z,4.57